Terminal Aerodrome Forecast
Issued by NWS

Home | Current Version | Previous Version | Text Only | Print | Product List | Glossary On
Versions: 1 2 3 4 5 6 7 8 9 10 11 12 13 14 15 16 17 18 19 20 21 22 23 24 25 26
225
FTAK31 PAJN 021738
TAFAYA
TAF
PAYA 021738Z 0218/0318 09010KT P6SM -RA SCT050 OVC070 WS020/06025KT
     FM021900 07010KT P6SM -RA OVC050
     FM030900 VRB03KT 5SM -SHSNRA SCT025 BKN050
     FM031200 09005KT 3SM -SHSN BKN025 BKN050
      AMD LTD TO CLD VIS AND WIND 0301/0309=

USA.gov is the U.S. government's official web portal to all federal, state and local government web resources and services.